createdAt,value
2022-12-15T00:00:34.224Z,72.45
2022-12-15T00:01:34.071Z,72.66
2022-12-15T00:02:34.146Z,72.73
2022-12-15T00:03:34.632Z,72.73
2022-12-15T00:04:34.058Z,72.63
2022-12-15T00:05:34.033Z,72.73
2022-12-15T00:06:34.057Z,72.63
2022-12-15T00:07:34.013Z,72.73
2022-12-15T00:08:33.999Z,72.52
2022-12-15T00:09:34.008Z,72.34
2022-12-15T00:10:33.991Z,72.10
2022-12-15T00:11:33.961Z,72.13
2022-12-15T00:12:33.955Z,71.89
2022-12-15T00:13:34.245Z,72.45
2022-12-15T00:14:33.948Z,71.61
2022-12-15T00:15:33.933Z,72.45
2022-12-15T00:16:34.009Z,72.13
2022-12-15T00:17:33.908Z,72.13
2022-12-15T00:18:33.897Z,72.27
2022-12-15T00:19:33.883Z,72.38
2022-12-15T00:20:33.892Z,72.69
2022-12-15T00:21:33.858Z,72.66
2022-12-15T00:22:33.856Z,72.69
2022-12-15T00:23:34.131Z,72.76
2022-12-15T00:24:33.835Z,72.69
2022-12-15T00:25:33.823Z,72.58
2022-12-15T00:26:33.833Z,72.80
2022-12-15T00:27:33.804Z,72.76
2022-12-15T00:28:33.822Z,73.00
2022-12-15T00:29:33.795Z,73.00
2022-12-15T00:30:33.772Z,73.11
2022-12-15T00:31:33.824Z,73.22
2022-12-15T00:32:33.788Z,73.18
2022-12-15T00:33:34.044Z,73.11
2022-12-15T00:34:33.731Z,72.90
2022-12-15T00:35:33.723Z,72.90
2022-12-15T00:36:33.712Z,73.32
2022-12-15T00:37:33.712Z,73.11
2022-12-15T00:38:33.683Z,72.80
2022-12-15T00:39:33.674Z,72.90
2022-12-15T00:40:33.673Z,72.90
2022-12-15T00:41:33.650Z,72.69
2022-12-15T00:42:33.661Z,72.90
2022-12-15T00:43:34.057Z,72.90
2022-12-15T00:44:33.624Z,72.90
2022-12-15T00:45:33.618Z,72.90
2022-12-15T00:46:33.725Z,72.90
2022-12-15T00:47:33.597Z,72.86
2022-12-15T00:48:33.634Z,73.11
2022-12-15T00:49:33.589Z,72.69
2022-12-15T00:50:33.564Z,72.90
2022-12-15T00:51:33.549Z,72.97
2022-12-15T00:52:33.558Z,73.11
2022-12-15T00:53:33.825Z,73.00
2022-12-15T00:54:33.524Z,73.11
2022-12-15T00:55:33.505Z,73.53
2022-12-15T00:56:33.497Z,73.22
2022-12-15T00:57:33.492Z,72.80
2022-12-15T00:58:33.484Z,73.53
2022-12-15T00:59:33.466Z,73.00
2022-12-15T01:00:33.465Z,72.90
2022-12-15T01:01:33.576Z,72.80
2022-12-15T01:02:33.649Z,73.22
2022-12-15T01:03:34.116Z,73.32
2022-12-15T01:04:33.489Z,73.22
2022-12-15T01:05:33.418Z,73.22
2022-12-15T01:06:33.394Z,73.32
2022-12-15T01:07:33.380Z,72.90
2022-12-15T01:08:33.400Z,72.80
2022-12-15T01:09:33.381Z,73.11
2022-12-15T01:10:33.355Z,73.22
2022-12-15T01:11:33.338Z,73.11
2022-12-15T01:12:33.352Z,72.41
2022-12-15T01:13:33.611Z,73.04
2022-12-15T01:14:33.325Z,73.25
2022-12-15T01:15:33.309Z,72.62
2022-12-15T01:16:33.355Z,73.49
2022-12-15T01:17:33.279Z,73.28
2022-12-15T01:18:33.278Z,72.97
2022-12-15T01:19:33.269Z,73.49
2022-12-15T01:20:33.276Z,72.86
2022-12-15T01:21:33.235Z,73.18
2022-12-15T01:22:33.261Z,73.28
2022-12-15T01:23:33.811Z,72.97
2022-12-15T01:24:33.215Z,73.49
2022-12-15T01:25:33.197Z,72.86
2022-12-15T01:26:33.183Z,73.18
2022-12-15T01:27:33.190Z,73.28
2022-12-15T01:28:33.168Z,73.28
2022-12-15T01:29:33.150Z,73.07
2022-12-15T01:30:33.159Z,73.28
2022-12-15T01:31:33.209Z,72.97
2022-12-15T01:32:33.148Z,73.28
2022-12-15T01:33:33.528Z,73.49
2022-12-15T01:34:33.109Z,73.49
2022-12-15T01:35:33.149Z,73.39
2022-12-15T01:36:33.099Z,73.00
2022-12-15T01:37:33.082Z,73.63
2022-12-15T01:38:33.066Z,73.63
2022-12-15T01:39:33.083Z,73.00
2022-12-15T01:40:33.047Z,73.32
2022-12-15T01:41:33.058Z,73.42
2022-12-15T01:42:40.572Z,73.52
2022-12-15T01:43:33.488Z,73.84
2022-12-15T01:44:33.015Z,73.63
2022-12-15T01:45:32.988Z,74.16
2022-12-15T01:46:33.030Z,73.74
2022-12-15T01:47:32.985Z,74.26
2022-12-15T01:48:32.977Z,73.94
2022-12-15T01:49:32.952Z,73.28
2022-12-15T01:50:32.945Z,73.00
2022-12-15T01:51:32.931Z,73.10
2022-12-15T01:52:32.954Z,73.32
2022-12-15T01:53:33.269Z,73.42
2022-12-15T01:54:32.925Z,73.49
2022-12-15T01:55:32.885Z,73.60
2022-12-15T01:56:37.337Z,73.81
2022-12-15T01:57:33.867Z,73.81
2022-12-15T01:58:32.851Z,73.39
2022-12-15T01:59:32.839Z,73.18
2022-12-15T02:00:32.925Z,72.86
2022-12-15T02:01:32.893Z,72.72
2022-12-15T02:02:38.310Z,73.35
2022-12-15T02:03:34.078Z,73.14
2022-12-15T02:04:32.787Z,73.57
2022-12-15T02:05:32.778Z,72.83
2022-12-15T02:06:32.783Z,73.14
2022-12-15T02:07:32.762Z,73.04
2022-12-15T02:08:32.776Z,73.04
2022-12-15T02:09:32.735Z,73.04
2022-12-15T02:10:32.763Z,72.62
2022-12-15T02:11:32.715Z,72.72
2022-12-15T02:12:32.738Z,73.14
2022-12-15T02:13:33.318Z,73.04
2022-12-15T02:14:32.693Z,72.72
2022-12-15T02:15:32.682Z,73.04
2022-12-15T02:16:32.720Z,72.97
2022-12-15T02:17:32.653Z,73.04
2022-12-15T02:18:32.674Z,72.72
2022-12-15T02:19:32.634Z,72.83
2022-12-15T02:20:32.655Z,72.62
2022-12-15T02:21:32.612Z,72.51
2022-12-15T02:22:32.603Z,72.41
2022-12-15T02:23:33.172Z,72.62
2022-12-15T02:24:32.652Z,72.83
2022-12-15T02:25:32.608Z,72.72
2022-12-15T02:26:32.569Z,72.75
2022-12-15T02:27:32.558Z,72.83
2022-12-15T02:28:32.550Z,72.62
2022-12-15T02:29:32.535Z,72.72
2022-12-15T02:30:32.553Z,72.51
2022-12-15T02:31:32.586Z,72.20
2022-12-15T02:32:32.496Z,72.33
2022-12-15T02:33:32.939Z,72.41
2022-12-15T02:34:32.484Z,72.62
2022-12-15T02:35:32.473Z,72.65
2022-12-15T02:36:32.465Z,72.97
2022-12-15T02:37:32.484Z,72.86
2022-12-15T02:38:32.434Z,72.41
2022-12-15T02:39:32.423Z,73.28
2022-12-15T02:40:32.511Z,72.65
2022-12-15T02:41:32.404Z,73.28
2022-12-15T02:42:32.425Z,72.62
2022-12-15T02:43:32.902Z,72.83
2022-12-15T02:44:32.372Z,72.72
2022-12-15T02:45:32.421Z,72.75
2022-12-15T02:46:32.355Z,72.86
2022-12-15T02:47:32.346Z,72.68
2022-12-15T02:48:32.333Z,73.10
2022-12-15T02:49:32.352Z,73.10
2022-12-15T02:50:32.345Z,73.32
2022-12-15T02:51:32.325Z,73.21
2022-12-15T02:52:32.310Z,73.32
2022-12-15T02:53:32.804Z,73.10
2022-12-15T02:54:32.277Z,73.21
2022-12-15T02:55:32.295Z,73.10
2022-12-15T02:56:32.301Z,73.10
2022-12-15T02:57:32.240Z,72.89
2022-12-15T02:58:32.230Z,73.10
2022-12-15T02:59:32.224Z,73.00
2022-12-15T03:00:32.206Z,73.00
2022-12-15T03:01:32.320Z,73.21
2022-12-15T03:02:32.348Z,73.10
2022-12-15T03:03:32.627Z,72.89
2022-12-15T03:04:32.172Z,73.32
2022-12-15T03:05:32.166Z,73.21
2022-12-15T03:06:32.147Z,73.32
2022-12-15T03:07:32.139Z,72.79
2022-12-15T03:08:32.152Z,72.89
2022-12-15T03:09:32.115Z,73.42
2022-12-15T03:10:32.105Z,72.89
2022-12-15T03:11:32.119Z,73.32
2022-12-15T03:12:32.129Z,72.89
2022-12-15T03:13:32.579Z,73.10
2022-12-15T03:14:32.070Z,73.32
2022-12-15T03:15:35.499Z,73.00
2022-12-15T03:16:32.149Z,73.00
2022-12-15T03:17:32.067Z,72.79
2022-12-15T03:18:32.054Z,73.10
2022-12-15T03:19:32.015Z,73.32
2022-12-15T03:20:32.003Z,73.21
2022-12-15T03:21:31.990Z,72.89
2022-12-15T03:22:31.989Z,72.68
2022-12-15T03:23:32.361Z,73.00
2022-12-15T03:24:31.986Z,72.89
2022-12-15T03:25:31.951Z,72.89
2022-12-15T03:26:31.950Z,72.89
2022-12-15T03:27:31.932Z,72.89
2022-12-15T03:28:31.949Z,73.00
2022-12-15T03:29:31.949Z,72.89
2022-12-15T03:30:31.900Z,72.79
2022-12-15T03:31:31.918Z,73.00
2022-12-15T03:32:31.887Z,73.10
2022-12-15T03:33:32.282Z,73.10
2022-12-15T03:34:31.898Z,73.03
2022-12-15T03:35:31.875Z,73.10
2022-12-15T03:36:31.831Z,72.79
2022-12-15T03:37:31.823Z,72.92
2022-12-15T03:38:31.814Z,72.89
2022-12-15T03:39:31.833Z,73.35
2022-12-15T03:40:31.799Z,73.24
2022-12-15T03:41:31.811Z,73.24
2022-12-15T03:42:31.773Z,73.56
2022-12-15T03:43:32.180Z,73.52
2022-12-15T03:44:31.770Z,73.24
2022-12-15T03:45:31.785Z,73.46
2022-12-15T03:46:31.864Z,73.03
2022-12-15T03:47:31.728Z,73.03
2022-12-15T03:48:31.722Z,73.00
2022-12-15T03:49:31.707Z,73.00
2022-12-15T03:50:31.734Z,73.21
2022-12-15T03:51:31.675Z,73.00
2022-12-15T03:52:31.676Z,73.42
2022-12-15T03:53:32.106Z,73.24
2022-12-15T03:54:31.654Z,73.03
2022-12-15T03:55:31.662Z,73.77
2022-12-15T03:56:31.658Z,73.88
2022-12-15T03:57:31.625Z,74.51
2022-12-15T03:58:31.634Z,74.82
2022-12-15T03:59:31.593Z,74.82
2022-12-15T04:00:31.607Z,75.81
2022-12-15T04:01:31.740Z,75.56
2022-12-15T04:02:31.787Z,75.56
2022-12-15T04:03:31.948Z,75.77
2022-12-15T04:04:31.549Z,74.71
2022-12-15T04:05:31.533Z,74.40
2022-12-15T04:06:31.520Z,74.47
2022-12-15T04:07:31.533Z,74.16
2022-12-15T04:08:31.539Z,73.98
2022-12-15T04:09:31.500Z,73.66
2022-12-15T04:10:34.380Z,74.61
2022-12-15T04:11:31.478Z,74.26
2022-12-15T04:12:31.465Z,74.26
2022-12-15T04:13:31.958Z,73.94
2022-12-15T04:14:31.443Z,74.05
2022-12-15T04:15:31.435Z,73.74
2022-12-15T04:16:31.469Z,73.00
2022-12-15T04:17:31.417Z,73.00
2022-12-15T04:18:31.427Z,72.79
2022-12-15T04:19:31.385Z,72.37
2022-12-15T04:20:31.411Z,72.27
2022-12-15T04:21:31.368Z,71.84
2022-12-15T04:22:31.357Z,71.84
2022-12-15T04:23:31.927Z,71.00
2022-12-15T04:24:31.337Z,70.79
2022-12-15T04:25:31.334Z,69.77
2022-12-15T04:26:31.322Z,69.67
2022-12-15T04:27:31.304Z,69.35
2022-12-15T04:28:31.607Z,69.35
2022-12-15T04:29:31.291Z,69.14
2022-12-15T04:30:31.299Z,69.14
2022-12-15T04:31:31.357Z,68.96
2022-12-15T04:32:31.277Z,69.14
2022-12-15T04:33:31.340Z,69.49
2022-12-15T04:34:31.257Z,69.59
2022-12-15T04:35:31.256Z,69.59
2022-12-15T04:36:31.215Z,69.80
2022-12-15T04:37:31.200Z,70.01
2022-12-15T04:38:31.198Z,70.01
2022-12-15T04:39:31.189Z,69.49
2022-12-15T04:40:31.223Z,69.59
2022-12-15T04:41:31.170Z,70.01
2022-12-15T04:42:31.168Z,70.01
2022-12-15T04:43:31.598Z,70.15
2022-12-15T04:44:31.127Z,70.15
2022-12-15T04:45:31.129Z,70.67
2022-12-15T04:46:31.252Z,70.67
2022-12-15T04:47:31.096Z,70.99
2022-12-15T04:48:31.110Z,71.20
2022-12-15T04:49:31.085Z,70.39
2022-12-15T04:50:31.067Z,70.67
2022-12-15T04:51:31.079Z,71.03
2022-12-15T04:52:31.049Z,70.95
2022-12-15T04:53:31.468Z,71.83
2022-12-15T04:54:31.032Z,72.17
2022-12-15T04:55:31.029Z,72.49
2022-12-15T04:56:31.043Z,72.71
2022-12-15T04:57:31.000Z,73.55
2022-12-15T04:58:30.984Z,73.33
2022-12-15T04:59:30.985Z,73.02
2022-12-15T05:00:30.960Z,73.13
2022-12-15T05:01:31.137Z,72.88
2022-12-15T05:02:31.135Z,72.49
2022-12-15T05:03:31.466Z,72.17
2022-12-15T05:04:31.040Z,72.00
2022-12-15T05:05:30.916Z,72.74
2022-12-15T05:06:30.903Z,72.45
2022-12-15T05:07:30.913Z,73.05
2022-12-15T05:08:30.876Z,73.05
2022-12-15T05:09:30.863Z,72.95
2022-12-15T05:10:30.860Z,72.84
2022-12-15T05:11:30.852Z,72.63
2022-12-15T05:12:30.868Z,72.60
2022-12-15T05:13:31.305Z,72.07
2022-12-15T05:14:30.822Z,72.49
2022-12-15T05:15:30.853Z,72.49
2022-12-15T05:16:30.792Z,71.75
2022-12-15T05:17:30.842Z,72.49
2022-12-15T05:18:30.809Z,72.49
2022-12-15T05:19:30.772Z,72.49
2022-12-15T05:20:30.783Z,72.49
2022-12-15T05:21:30.740Z,72.39
2022-12-15T05:22:30.742Z,72.81
2022-12-15T05:23:31.187Z,71.75
2022-12-15T05:24:30.740Z,72.49
2022-12-15T05:25:30.697Z,72.28
2022-12-15T05:26:30.689Z,72.07
2022-12-15T05:27:30.684Z,72.07
2022-12-15T05:28:30.677Z,72.49
2022-12-15T05:29:30.700Z,72.52
2022-12-15T05:30:30.651Z,72.98
2022-12-15T05:31:30.698Z,73.51
2022-12-15T05:32:30.625Z,74.67
2022-12-15T05:33:31.038Z,74.28
2022-12-15T05:34:30.613Z,74.77
2022-12-15T05:35:30.600Z,75.09
2022-12-15T05:36:30.628Z,76.15
2022-12-15T05:37:30.587Z,75.45
2022-12-15T05:38:30.568Z,76.11
2022-12-15T05:39:30.553Z,76.32
2022-12-15T05:40:30.552Z,76.71
2022-12-15T05:41:30.598Z,76.71
2022-12-15T05:42:30.522Z,77.03
2022-12-15T05:43:31.066Z,76.68
2022-12-15T05:44:30.524Z,76.15
2022-12-15T05:45:30.490Z,75.45
2022-12-15T05:46:30.532Z,76.08
2022-12-15T05:47:30.508Z,76.18
2022-12-15T05:48:30.464Z,76.50
2022-12-15T05:49:30.481Z,76.71
2022-12-15T05:50:30.444Z,76.71
2022-12-15T05:51:30.424Z,76.61
2022-12-15T05:52:30.445Z,76.71
2022-12-15T05:53:30.769Z,76.36
2022-12-15T05:54:30.406Z,76.25
2022-12-15T05:55:30.437Z,75.83
2022-12-15T05:56:30.400Z,75.83
2022-12-15T05:57:30.375Z,75.90
2022-12-15T05:58:30.368Z,76.01
2022-12-15T05:59:30.354Z,74.67
2022-12-15T06:00:30.340Z,74.74
2022-12-15T06:01:30.365Z,74.77
2022-12-15T06:02:30.374Z,74.57
2022-12-15T06:03:30.696Z,74.57
2022-12-15T06:04:30.356Z,74.49
2022-12-15T06:05:30.284Z,75.02
2022-12-15T06:06:30.302Z,75.97
2022-12-15T06:07:30.268Z,75.41
2022-12-15T06:08:30.272Z,76.29
2022-12-15T06:09:30.249Z,75.31
2022-12-15T06:10:30.237Z,75.73
2022-12-15T06:11:30.224Z,75.41
2022-12-15T06:12:30.224Z,75.48
2022-12-15T06:13:30.582Z,75.27
2022-12-15T06:14:30.192Z,75.27
2022-12-15T06:15:30.180Z,75.45
2022-12-15T06:16:30.269Z,74.71
2022-12-15T06:17:30.193Z,74.71
2022-12-15T06:18:30.153Z,74.68
2022-12-15T06:19:30.177Z,74.46
2022-12-15T06:20:30.129Z,73.94
2022-12-15T06:21:30.130Z,73.52
2022-12-15T06:22:30.132Z,73.52
2022-12-15T06:23:31.125Z,73.41
2022-12-15T06:24:30.128Z,73.62
2022-12-15T06:25:30.080Z,73.44
2022-12-15T06:26:30.072Z,73.33
2022-12-15T06:27:30.066Z,73.52
2022-12-15T06:28:30.085Z,73.94
2022-12-15T06:29:30.045Z,73.94
2022-12-15T06:30:30.026Z,73.83
2022-12-15T06:31:30.086Z,73.20
2022-12-15T06:32:30.009Z,73.62
2022-12-15T06:33:30.392Z,73.20
2022-12-15T06:34:29.996Z,73.41
2022-12-15T06:35:29.977Z,72.88
2022-12-15T06:36:29.987Z,72.88
2022-12-15T06:37:30.028Z,72.78
2022-12-15T06:38:29.983Z,73.09
2022-12-15T06:39:29.932Z,72.99
2022-12-15T06:40:33.321Z,73.09
2022-12-15T06:41:30.982Z,72.56
2022-12-15T06:42:29.909Z,72.49
2022-12-15T06:43:30.347Z,72.71
2022-12-15T06:44:29.884Z,72.60
2022-12-15T06:45:29.894Z,72.39
2022-12-15T06:46:30.015Z,72.49
2022-12-15T06:47:29.863Z,72.49
2022-12-15T06:48:29.848Z,72.46
2022-12-15T06:49:29.850Z,72.35
2022-12-15T06:50:29.854Z,71.33
2022-12-15T06:51:29.808Z,71.78
2022-12-15T06:52:29.803Z,71.71
2022-12-15T06:53:30.226Z,71.71
2022-12-15T06:54:29.784Z,72.24
2022-12-15T06:55:29.765Z,72.88
2022-12-15T06:56:33.570Z,72.66
2022-12-15T06:57:29.752Z,72.77
2022-12-15T06:58:29.740Z,72.34
2022-12-15T06:59:29.733Z,72.56
2022-12-15T07:00:29.753Z,72.14
2022-12-15T07:01:29.918Z,72.27
2022-12-15T07:02:29.854Z,72.70
2022-12-15T07:03:30.537Z,71.95
2022-12-15T07:04:29.740Z,72.49
2022-12-15T07:05:29.694Z,72.17
2022-12-15T07:06:29.665Z,71.99
2022-12-15T07:07:29.648Z,72.59
2022-12-15T07:08:32.357Z,72.59
2022-12-15T07:09:30.625Z,72.59
2022-12-15T07:10:29.622Z,72.70
2022-12-15T07:11:29.646Z,72.38
2022-12-15T07:12:29.650Z,72.59
2022-12-15T07:13:30.009Z,72.49
2022-12-15T07:14:29.585Z,71.53
2022-12-15T07:15:29.572Z,71.75
2022-12-15T07:16:29.615Z,71.95
2022-12-15T07:17:29.556Z,72.59
2022-12-15T07:18:29.574Z,72.03
2022-12-15T07:19:29.596Z,72.06
2022-12-15T07:20:29.509Z,71.64
2022-12-15T07:21:29.521Z,71.22
2022-12-15T07:22:29.493Z,71.43
2022-12-15T07:23:46.248Z,71.75
2022-12-15T07:24:30.480Z,71.71
2022-12-15T07:25:29.470Z,71.71
2022-12-15T07:26:29.459Z,71.50
2022-12-15T07:27:29.469Z,71.19
2022-12-15T07:28:30.026Z,71.08
2022-12-15T07:29:29.423Z,70.48
2022-12-15T07:30:33.632Z,71.53
2022-12-15T07:31:30.462Z,75.62
2022-12-15T07:32:29.400Z,79.28
2022-12-15T07:33:29.663Z,79.77
2022-12-15T07:34:29.382Z,76.89
2022-12-15T07:35:29.369Z,77.52
2022-12-15T07:36:29.361Z,76.01
2022-12-15T07:37:29.339Z,72.42
2022-12-15T07:38:29.353Z,70.42
2022-12-15T07:39:29.325Z,70.03
2022-12-15T07:40:29.308Z,69.09
2022-12-15T07:41:29.300Z,68.87
2022-12-15T07:42:29.291Z,68.87
2022-12-15T07:43:29.865Z,68.80
2022-12-15T07:44:29.397Z,68.90
2022-12-15T07:45:29.344Z,68.90
2022-12-15T07:46:29.422Z,69.78
2022-12-15T07:47:29.240Z,69.12
2022-12-15T07:48:29.248Z,69.75
2022-12-15T07:49:29.238Z,69.15
2022-12-15T07:50:29.231Z,69.15
2022-12-15T07:51:29.191Z,68.93
2022-12-15T07:52:29.209Z,69.15
2022-12-15T07:53:29.587Z,69.04
2022-12-15T07:54:29.189Z,69.15
2022-12-15T07:55:57.237Z,70.23
2022-12-15T07:56:34.438Z,70.65
2022-12-15T07:57:30.128Z,70.10
2022-12-15T07:58:38.603Z,69.99
2022-12-15T07:59:29.118Z,70.62
2022-12-15T08:00:29.140Z,70.20
2022-12-15T08:01:29.196Z,70.42
2022-12-15T08:02:29.323Z,70.10
2022-12-15T08:03:29.683Z,69.99
2022-12-15T08:04:29.069Z,70.10
2022-12-15T08:05:29.070Z,69.67
2022-12-15T08:06:29.239Z,69.46
2022-12-15T08:07:29.032Z,69.36
2022-12-15T08:08:29.417Z,69.67
2022-12-15T08:09:29.007Z,70.10
2022-12-15T08:10:29.067Z,70.49
2022-12-15T08:11:29.018Z,69.54
2022-12-15T08:12:28.977Z,68.84
2022-12-15T08:14:00.667Z,69.23
2022-12-15T08:14:29.968Z,68.15
2022-12-15T08:15:28.975Z,67.38
2022-12-15T08:16:29.009Z,66.72
2022-12-15T08:17:28.936Z,66.06
2022-12-15T08:18:28.968Z,65.61
2022-12-15T08:19:28.910Z,64.90
2022-12-15T08:20:28.899Z,64.37
2022-12-15T08:21:28.900Z,64.69
2022-12-15T08:22:28.869Z,64.58
2022-12-15T08:23:29.287Z,65.29
2022-12-15T08:24:28.855Z,64.34
2022-12-15T08:25:28.854Z,64.42
2022-12-15T08:26:30.933Z,63.58
2022-12-15T08:27:28.830Z,63.45
2022-12-15T08:28:28.806Z,63.18
2022-12-15T08:30:29.793Z,60.89
2022-12-15T08:31:28.815Z,59.40
2022-12-15T08:32:28.798Z,59.00
2022-12-15T08:33:29.113Z,57.72
2022-12-15T08:34:28.753Z,56.52
2022-12-15T08:35:55.121Z,55.32
2022-12-15T08:36:29.724Z,54.64
2022-12-15T08:37:28.742Z,53.42
2022-12-15T08:38:28.703Z,51.79
2022-12-15T08:39:28.702Z,50.62
2022-12-15T08:40:28.694Z,50.18
2022-12-15T08:41:28.673Z,48.72
2022-12-15T08:42:28.670Z,49.35
2022-12-15T08:43:29.160Z,49.68
2022-12-15T08:44:28.650Z,48.72
2022-12-15T08:45:28.666Z,48.72
2022-12-15T08:46:28.694Z,48.94
2022-12-15T08:47:28.605Z,48.94
2022-12-15T08:48:28.614Z,48.62
2022-12-15T08:49:28.602Z,48.85
2022-12-15T08:50:28.584Z,48.67
2022-12-15T08:51:28.564Z,49.21
2022-12-15T08:52:28.566Z,50.32
2022-12-15T08:53:42.613Z,51.54
2022-12-15T08:54:29.543Z,53.12
2022-12-15T08:55:28.524Z,53.15
2022-12-15T08:56:28.517Z,54.09
2022-12-15T08:57:28.503Z,54.43
2022-12-15T08:58:28.496Z,55.05
2022-12-15T08:59:28.502Z,54.69
2022-12-15T09:00:28.477Z,54.02
2022-12-15T09:01:28.625Z,53.45
2022-12-15T09:02:28.589Z,51.46
2022-12-15T09:03:28.722Z,51.65
2022-12-15T09:04:28.546Z,52.07
2022-12-15T09:05:28.440Z,51.54
2022-12-15T09:06:28.419Z,51.89
2022-12-15T09:07:28.417Z,52.01
2022-12-15T09:08:28.393Z,52.40
2022-12-15T09:09:28.404Z,52.40
2022-12-15T09:10:28.364Z,52.40
2022-12-15T09:11:28.361Z,52.43
2022-12-15T09:12:28.341Z,53.16
2022-12-15T09:13:28.828Z,53.52
2022-12-15T09:14:29.625Z,54.75
2022-12-15T09:15:51.938Z,53.78
2022-12-15T09:16:29.405Z,52.92
2022-12-15T09:17:28.398Z,52.64
2022-12-15T09:18:28.278Z,52.36
2022-12-15T09:19:28.276Z,51.57
2022-12-15T09:20:28.299Z,52.84
2022-12-15T09:21:28.253Z,53.94
2022-12-15T09:22:28.256Z,54.25
2022-12-15T09:23:28.801Z,54.35
2022-12-15T09:24:34.639Z,54.77
2022-12-15T09:25:29.220Z,55.08
2022-12-15T09:26:28.223Z,54.88
2022-12-15T09:27:28.181Z,55.11
2022-12-15T09:28:28.171Z,55.37
2022-12-15T09:29:28.181Z,54.91
2022-12-15T09:30:28.214Z,53.86
2022-12-15T09:31:28.290Z,53.00
2022-12-15T09:32:28.152Z,53.06
2022-12-15T09:33:28.444Z,51.87
2022-12-15T09:34:28.116Z,50.86
2022-12-15T09:35:28.102Z,50.09
2022-12-15T09:36:28.111Z,49.71
2022-12-15T09:37:28.077Z,47.49
2022-12-15T09:38:28.093Z,47.24
2022-12-15T09:39:28.062Z,47.02
2022-12-15T09:40:28.054Z,46.27
2022-12-15T09:41:28.036Z,46.06
2022-12-15T09:42:28.052Z,46.50
2022-12-15T09:43:37.950Z,47.02
2022-12-15T09:44:29.004Z,46.91
2022-12-15T09:45:28.025Z,46.68
2022-12-15T09:46:28.077Z,45.96
2022-12-15T09:47:27.967Z,45.34
2022-12-15T09:48:27.969Z,46.19
2022-12-15T09:49:27.946Z,45.69
2022-12-15T09:50:27.944Z,46.25
2022-12-15T09:51:27.981Z,47.95
2022-12-15T09:52:27.935Z,48.61
2022-12-15T09:53:54.127Z,48.22
2022-12-15T09:54:28.938Z,49.39
2022-12-15T09:55:27.985Z,50.34
2022-12-15T09:56:27.921Z,51.17
2022-12-15T09:57:27.877Z,51.20
2022-12-15T09:58:27.856Z,50.91
2022-12-15T09:59:27.840Z,51.87
2022-12-15T10:00:27.831Z,52.51
2022-12-15T10:01:27.888Z,53.06
2022-12-15T10:02:27.917Z,53.30
2022-12-15T10:03:28.056Z,53.92
2022-12-15T10:04:27.867Z,54.36
2022-12-15T10:05:50.011Z,54.15
2022-12-15T10:06:33.047Z,55.16
2022-12-15T10:07:28.766Z,55.38
2022-12-15T10:08:27.857Z,54.64
2022-12-15T10:09:27.738Z,54.75
2022-12-15T10:10:27.733Z,54.77
2022-12-15T10:11:27.740Z,54.77
2022-12-15T10:12:27.708Z,55.51
2022-12-15T10:13:28.011Z,55.30
2022-12-15T10:14:27.679Z,55.32
2022-12-15T10:15:27.719Z,55.32
2022-12-15T10:16:27.711Z,55.43
2022-12-15T10:17:27.694Z,56.18
2022-12-15T10:18:27.645Z,56.41
2022-12-15T10:19:27.638Z,57.17
2022-12-15T10:20:27.613Z,57.35
2022-12-15T10:21:27.619Z,57.48
2022-12-15T10:22:27.610Z,57.17
2022-12-15T10:23:27.686Z,57.38
2022-12-15T10:25:07.463Z,57.62
2022-12-15T10:25:30.455Z,57.51
2022-12-15T10:26:27.556Z,58.14
2022-12-15T10:27:27.566Z,57.93
2022-12-15T10:28:27.542Z,58.76
2022-12-15T10:29:27.663Z,58.42
2022-12-15T10:30:27.552Z,58.55
2022-12-15T10:31:27.592Z,58.16
2022-12-15T10:32:27.505Z,58.48
2022-12-15T10:33:27.524Z,59.10
2022-12-15T10:34:28.275Z,59.21
2022-12-15T10:35:27.457Z,59.23
2022-12-15T10:36:27.445Z,59.65
2022-12-15T10:37:27.433Z,60.38
2022-12-15T10:38:27.446Z,60.59
2022-12-15T10:39:27.413Z,60.07
2022-12-15T10:40:27.431Z,60.04
2022-12-15T10:41:27.392Z,60.36
2022-12-15T10:42:27.391Z,59.39
2022-12-15T10:43:27.687Z,59.05
2022-12-15T10:44:32.220Z,59.02
2022-12-15T10:45:28.354Z,58.50
2022-12-15T10:46:27.418Z,58.08
2022-12-15T10:47:27.424Z,58.26
2022-12-15T10:48:27.324Z,58.06
2022-12-15T10:49:27.323Z,58.03
2022-12-15T10:50:27.363Z,58.03
2022-12-15T10:51:27.320Z,58.03
2022-12-15T10:52:27.285Z,57.51
2022-12-15T10:53:27.344Z,57.40
2022-12-15T10:54:27.264Z,57.28
2022-12-15T10:55:27.265Z,57.69
2022-12-15T10:56:32.904Z,57.46
2022-12-15T10:57:28.222Z,57.28
2022-12-15T10:58:27.215Z,57.48
2022-12-15T10:59:27.216Z,57.38
2022-12-15T11:00:27.190Z,57.59
2022-12-15T11:01:27.477Z,57.40
2022-12-15T11:02:27.415Z,57.61
2022-12-15T11:03:27.526Z,58.03
2022-12-15T11:04:27.214Z,58.24
2022-12-15T11:05:27.144Z,58.14
2022-12-15T11:06:27.161Z,57.71
2022-12-15T11:07:27.115Z,57.93
2022-12-15T11:08:27.130Z,58.14
2022-12-15T11:09:27.093Z,59.07
2022-12-15T11:10:27.106Z,58.89
2022-12-15T11:11:27.075Z,58.89
2022-12-15T11:12:27.099Z,59.72
2022-12-15T11:13:33.008Z,59.72
2022-12-15T11:14:28.057Z,59.62
2022-12-15T11:15:27.123Z,59.52
2022-12-15T11:16:27.057Z,59.44
2022-12-15T11:17:27.022Z,60.27
2022-12-15T11:18:27.009Z,60.30
2022-12-15T11:19:26.992Z,60.82
2022-12-15T11:20:26.985Z,60.93
2022-12-15T11:21:26.975Z,61.79
2022-12-15T11:22:26.978Z,62.00
2022-12-15T11:23:26.952Z,62.41
2022-12-15T11:24:26.947Z,62.18
2022-12-15T11:25:26.926Z,62.28
2022-12-15T11:26:26.917Z,62.07
2022-12-15T11:27:26.909Z,62.18
2022-12-15T11:28:26.982Z,62.05
2022-12-15T11:29:26.900Z,61.45
2022-12-15T11:30:26.885Z,61.76
2022-12-15T11:31:26.863Z,62.07
2022-12-15T11:32:26.874Z,62.31
2022-12-15T11:33:26.856Z,62.62
2022-12-15T11:34:26.831Z,62.94
2022-12-15T11:35:26.827Z,63.15
2022-12-15T11:36:26.819Z,63.25
2022-12-15T11:37:30.790Z,63.39
2022-12-15T11:38:27.882Z,63.18
2022-12-15T11:39:26.778Z,64.01
2022-12-15T11:40:26.783Z,63.70
2022-12-15T11:41:26.769Z,64.64
2022-12-15T11:42:26.746Z,64.12
2022-12-15T11:43:26.748Z,63.78
2022-12-15T11:44:26.764Z,63.95
2022-12-15T11:45:26.735Z,63.54
2022-12-15T11:46:26.772Z,63.32
2022-12-15T11:47:26.702Z,63.30
2022-12-15T11:48:26.690Z,62.67
2022-12-15T11:49:26.687Z,62.57
2022-12-15T11:50:26.775Z,62.46
2022-12-15T11:51:26.671Z,62.81
2022-12-15T11:52:26.656Z,62.88
2022-12-15T11:53:26.633Z,63.09
2022-12-15T11:54:26.636Z,63.30
2022-12-15T11:55:32.067Z,63.20
2022-12-15T11:56:27.614Z,63.30
2022-12-15T11:57:26.593Z,63.06
2022-12-15T11:58:26.594Z,62.96
2022-12-15T11:59:26.576Z,62.82
2022-12-15T12:00:26.600Z,63.17
2022-12-15T12:01:26.596Z,62.41
2022-12-15T12:02:26.800Z,62.09
2022-12-15T12:03:26.642Z,62.19
2022-12-15T12:04:26.525Z,62.19
2022-12-15T12:05:26.718Z,62.30
2022-12-15T12:06:26.510Z,62.62
2022-12-15T12:07:26.487Z,62.96
2022-12-15T12:08:26.501Z,62.82
2022-12-15T12:09:26.473Z,62.93
2022-12-15T12:10:26.464Z,62.41
2022-12-15T12:11:26.526Z,62.51
2022-12-15T12:12:26.432Z,62.48
2022-12-15T12:13:26.438Z,62.17
2022-12-15T12:14:26.424Z,61.93
2022-12-15T12:15:26.459Z,61.93
2022-12-15T12:16:26.420Z,61.62
2022-12-15T12:17:26.390Z,61.80
2022-12-15T12:18:26.404Z,61.69
2022-12-15T12:19:26.395Z,61.80
2022-12-15T12:20:26.353Z,61.69
2022-12-15T12:21:26.340Z,61.38
2022-12-15T12:22:26.341Z,61.46
2022-12-15T12:23:26.315Z,61.18
2022-12-15T12:24:26.348Z,61.25
2022-12-15T12:25:26.310Z,61.04
2022-12-15T12:26:26.285Z,61.04
2022-12-15T12:27:26.287Z,60.94
2022-12-15T12:28:26.266Z,60.52
2022-12-15T12:29:26.268Z,60.73
2022-12-15T12:30:26.263Z,61.15
2022-12-15T12:31:26.248Z,61.15
2022-12-15T12:32:26.252Z,60.73
2022-12-15T12:33:26.210Z,60.73
2022-12-15T12:34:26.212Z,60.83
2022-12-15T12:35:31.522Z,60.21
2022-12-15T12:36:27.198Z,60.52
2022-12-15T12:37:26.201Z,61.15
2022-12-15T12:38:26.161Z,61.04
2022-12-15T12:39:26.150Z,60.91
2022-12-15T12:40:26.167Z,60.50
2022-12-15T12:41:26.137Z,60.29
2022-12-15T12:42:26.135Z,60.73
2022-12-15T12:43:26.121Z,61.25
2022-12-15T12:44:26.122Z,61.36
2022-12-15T12:45:26.082Z,61.67
2022-12-15T12:46:26.095Z,61.25
2022-12-15T12:47:26.058Z,61.25
2022-12-15T12:48:26.149Z,61.69
2022-12-15T12:50:27.026Z,62.08
2022-12-15T12:51:26.029Z,61.98
2022-12-15T12:52:26.030Z,62.19
2022-12-15T12:53:26.002Z,61.90
2022-12-15T12:54:25.998Z,62.19